createdAt,value
2023-03-01T05:14:45.974Z,-3.32
2023-03-01T05:24:48.375Z,-4.37
2023-03-01T05:34:50.779Z,-3.36
2023-03-01T05:44:53.135Z,-3.68
2023-03-01T05:54:56.342Z,-3.75
2023-03-01T06:05:00.080Z,-3.59
2023-03-01T06:15:03.105Z,-3.34
2023-03-01T06:25:06.358Z,-3.46
2023-03-01T06:35:11.772Z,-3.91
2023-03-01T06:45:13.921Z,-3.62
2023-03-01T06:55:16.326Z,-3.23
2023-03-01T07:05:18.689Z,-3.09
2023-03-01T07:15:20.812Z,-2.90
2023-03-01T07:25:23.187Z,-2.85
2023-03-01T07:35:28.689Z,-3.10
2023-03-01T07:45:31.210Z,-2.90
2023-03-01T07:55:33.348Z,-2.71
2023-03-01T08:05:37.101Z,-2.76
2023-03-01T08:15:39.162Z,-2.03
2023-03-01T08:25:41.733Z,-2.41
2023-03-01T08:35:44.098Z,-1.38
2023-03-01T08:45:49.171Z,-1.58
2023-03-01T08:55:51.571Z,-0.89
2023-03-01T09:05:54.285Z,-1.20
2023-03-01T09:15:56.479Z,-0.36
2023-03-01T09:25:58.801Z,-0.18
2023-03-01T09:36:03.854Z,-0.33
2023-03-01T09:46:09.147Z,-0.45
2023-03-01T09:56:33.767Z,-0.68
2023-03-01T10:06:36.094Z,-0.14
2023-03-01T10:17:03.956Z,0.17
2023-03-01T10:27:16.962Z,0.66
2023-03-01T10:37:22.710Z,-0.01
2023-03-01T10:47:28.378Z,0.78
2023-03-01T10:57:34.467Z,0.95
2023-03-01T11:07:48.674Z,1.27
2023-03-01T11:17:55.817Z,1.58
2023-03-01T11:28:05.800Z,0.72
2023-03-01T11:38:28.837Z,1.87
2023-03-01T11:48:47.411Z,2.70
2023-03-01T11:59:29.423Z,2.20
2023-03-01T12:09:39.340Z,2.43
2023-03-01T12:20:10.981Z,2.01
2023-03-01T12:30:26.790Z,2.38
2023-03-01T12:40:55.980Z,2.88
2023-03-01T12:51:04.586Z,2.76
2023-03-01T13:01:36.480Z,3.27
2023-03-01T13:11:43.254Z,3.49
2023-03-01T13:21:46.475Z,3.70
2023-03-01T13:31:49.077Z,3.52
2023-03-01T13:41:56.019Z,3.72
2023-03-01T13:51:58.244Z,3.53
2023-03-01T14:02:01.622Z,3.92
2023-03-01T14:12:28.121Z,4.03
2023-03-01T14:22:33.984Z,3.89
2023-03-01T14:32:37.557Z,3.94
2023-03-01T14:42:39.693Z,3.63
2023-03-01T14:52:44.482Z,3.91
2023-03-01T15:02:49.565Z,4.10
2023-03-01T15:12:53.833Z,4.52
2023-03-01T15:22:56.775Z,3.55
2023-03-01T15:33:20.506Z,3.36
2023-03-01T15:44:01.539Z,3.19
2023-03-01T15:54:12.149Z,3.59
2023-03-01T16:04:22.027Z,3.55
2023-03-01T16:14:25.520Z,3.77
2023-03-01T16:24:27.760Z,3.52
2023-03-01T16:34:29.960Z,3.47
2023-03-01T16:44:32.769Z,3.23
2023-03-01T16:54:35.707Z,2.59
2023-03-01T17:04:46.520Z,3.23
2023-03-01T17:14:51.191Z,2.81
2023-03-01T17:24:53.371Z,2.90
2023-03-01T17:34:55.467Z,2.45
2023-03-01T17:45:00.673Z,2.42
2023-03-01T17:55:05.293Z,2.34
2023-03-01T18:05:07.872Z,2.52
2023-03-01T18:15:10.369Z,2.48
2023-03-01T18:25:14.463Z,1.50
2023-03-01T18:35:16.765Z,2.23
2023-03-01T18:45:20.374Z,1.70
2023-03-01T18:55:22.572Z,1.82
2023-03-01T19:05:24.758Z,1.42
2023-03-01T19:15:27.025Z,1.56
2023-03-01T19:25:29.138Z,1.62
2023-03-01T19:35:34.682Z,0.95
2023-03-01T19:45:36.897Z,1.11
2023-03-01T19:55:39.472Z,0.76
2023-03-01T20:05:43.769Z,1.01
2023-03-01T20:15:46.129Z,1.20
2023-03-01T20:25:49.030Z,1.29
2023-03-01T20:35:51.368Z,0.83
2023-03-01T20:45:53.696Z,0.89
2023-03-01T20:55:56.087Z,1.36
2023-03-01T21:06:00.789Z,1.05
